sensor_id;sensor_type;location;lat;lon;timestamp;P1;durP1;ratioP1;P2;durP2;ratioP2
26277;SDS011;14000;52.056;8.510;2022-07-03T00:01:22;7.30;;;2.30;;
26277;SDS011;14000;52.056;8.510;2022-07-03T00:03:48;7.07;;;2.40;;
26277;SDS011;14000;52.056;8.510;2022-07-03T00:06:14;9.77;;;2.50;;
26277;SDS011;14000;52.056;8.510;2022-07-03T00:08:39;10.23;;;2.60;;
26277;SDS011;14000;52.056;8.510;2022-07-03T00:11:06;8.07;;;2.20;;
26277;SDS011;14000;52.056;8.510;2022-07-03T00:13:32;7.87;;;2.63;;
26277;SDS011;14000;52.056;8.510;2022-07-03T00:15:57;7.10;;;2.10;;
26277;SDS011;14000;52.056;8.510;2022-07-03T00:18:23;7.33;;;2.30;;
26277;SDS011;14000;52.056;8.510;2022-07-03T00:20:49;7.37;;;2.20;;
26277;SDS011;14000;52.056;8.510;2022-07-03T00:23:29;6.90;;;2.20;;
26277;SDS011;14000;52.056;8.510;2022-07-03T00:26:00;7.47;;;2.70;;
26277;SDS011;14000;52.056;8.510;2022-07-03T00:28:29;9.67;;;2.53;;
26277;SDS011;14000;52.056;8.510;2022-07-03T00:30:56;8.77;;;2.47;;
26277;SDS011;14000;52.056;8.510;2022-07-03T00:33:22;10.23;;;3.47;;
26277;SDS011;14000;52.056;8.510;2022-07-03T00:35:51;15.23;;;6.00;;
26277;SDS011;14000;52.056;8.510;2022-07-03T00:38:20;17.43;;;7.23;;
26277;SDS011;14000;52.056;8.510;2022-07-03T00:40:47;13.10;;;4.90;;
26277;SDS011;14000;52.056;8.510;2022-07-03T00:43:13;14.73;;;6.90;;
26277;SDS011;14000;52.056;8.510;2022-07-03T00:45:42;13.60;;;6.03;;
26277;SDS011;14000;52.056;8.510;2022-07-03T00:48:12;14.00;;;5.23;;
26277;SDS011;14000;52.056;8.510;2022-07-03T00:50:39;13.77;;;5.20;;
26277;SDS011;14000;52.056;8.510;2022-07-03T00:53:10;15.40;;;6.83;;
26277;SDS011;14000;52.056;8.510;2022-07-03T00:55:38;20.40;;;7.10;;
26277;SDS011;14000;52.056;8.510;2022-07-03T00:58:07;16.80;;;6.80;;
26277;SDS011;14000;52.056;8.510;2022-07-03T01:00:33;16.93;;;7.30;;
26277;SDS011;14000;52.056;8.510;2022-07-03T01:03:05;17.77;;;7.57;;
26277;SDS011;14000;52.056;8.510;2022-07-03T01:05:37;17.03;;;6.97;;
26277;SDS011;14000;52.056;8.510;2022-07-03T01:13:56;13.73;;;5.60;;
26277;SDS011;14000;52.056;8.510;2022-07-03T01:16:40;11.90;;;4.40;;
26277;SDS011;14000;52.056;8.510;2022-07-03T01:25:22;9.60;;;3.53;;
26277;SDS011;14000;52.056;8.510;2022-07-03T01:28:14;10.03;;;3.17;;
26277;SDS011;14000;52.056;8.510;2022-07-03T01:30:48;10.10;;;3.73;;
26277;SDS011;14000;52.056;8.510;2022-07-03T01:33:16;8.57;;;3.20;;
26277;SDS011;14000;52.056;8.510;2022-07-03T01:35:54;9.10;;;3.10;;
26277;SDS011;14000;52.056;8.510;2022-07-03T01:38:23;7.97;;;3.03;;
26277;SDS011;14000;52.056;8.510;2022-07-03T01:40:52;10.50;;;2.57;;
26277;SDS011;14000;52.056;8.510;2022-07-03T01:43:21;8.07;;;2.37;;
26277;SDS011;14000;52.056;8.510;2022-07-03T01:45:53;9.43;;;2.60;;
26277;SDS011;14000;52.056;8.510;2022-07-03T01:48:23;9.60;;;2.90;;
26277;SDS011;14000;52.056;8.510;2022-07-03T01:50:49;10.23;;;2.80;;
26277;SDS011;14000;52.056;8.510;2022-07-03T01:53:16;10.00;;;2.80;;
26277;SDS011;14000;52.056;8.510;2022-07-03T01:55:42;8.73;;;3.40;;
26277;SDS011;14000;52.056;8.510;2022-07-03T01:58:09;13.67;;;6.33;;
26277;SDS011;14000;52.056;8.510;2022-07-03T02:00:46;15.70;;;9.40;;
26277;SDS011;14000;52.056;8.510;2022-07-03T02:03:24;13.73;;;8.90;;
26277;SDS011;14000;52.056;8.510;2022-07-03T02:05:54;14.90;;;7.20;;
26277;SDS011;14000;52.056;8.510;2022-07-03T02:11:30;12.80;;;6.73;;
26277;SDS011;14000;52.056;8.510;2022-07-03T02:14:11;14.20;;;7.10;;
26277;SDS011;14000;52.056;8.510;2022-07-03T02:16:54;12.00;;;6.50;;
26277;SDS011;14000;52.056;8.510;2022-07-03T02:19:37;15.23;;;5.53;;
26277;SDS011;14000;52.056;8.510;2022-07-03T02:22:28;10.70;;;5.03;;
26277;SDS011;14000;52.056;8.510;2022-07-03T02:25:07;13.43;;;5.10;;
26277;SDS011;14000;52.056;8.510;2022-07-03T02:27:57;11.20;;;4.27;;
26277;SDS011;14000;52.056;8.510;2022-07-03T02:30:33;9.60;;;4.30;;
26277;SDS011;14000;52.056;8.510;2022-07-03T02:33:01;10.77;;;3.23;;
26277;SDS011;14000;52.056;8.510;2022-07-03T02:43:36;7.87;;;3.47;;
26277;SDS011;14000;52.056;8.510;2022-07-03T02:49:26;7.87;;;3.27;;
26277;SDS011;14000;52.056;8.510;2022-07-03T02:52:24;8.43;;;3.30;;
26277;SDS011;14000;52.056;8.510;2022-07-03T02:54:52;10.53;;;2.90;;
26277;SDS011;14000;52.056;8.510;2022-07-03T02:57:22;11.13;;;3.77;;
26277;SDS011;14000;52.056;8.510;2022-07-03T03:10:42;9.20;;;2.67;;
26277;SDS011;14000;52.056;8.510;2022-07-03T03:13:13;9.17;;;3.33;;
26277;SDS011;14000;52.056;8.510;2022-07-03T03:15:47;8.77;;;3.47;;
26277;SDS011;14000;52.056;8.510;2022-07-03T03:18:36;11.70;;;3.23;;
26277;SDS011;14000;52.056;8.510;2022-07-03T03:21:04;9.10;;;3.30;;
26277;SDS011;14000;52.056;8.510;2022-07-03T03:23:43;13.43;;;3.50;;
26277;SDS011;14000;52.056;8.510;2022-07-03T03:26:13;7.70;;;2.90;;
26277;SDS011;14000;52.056;8.510;2022-07-03T03:28:40;8.13;;;3.13;;
26277;SDS011;14000;52.056;8.510;2022-07-03T03:31:06;10.03;;;3.30;;
26277;SDS011;14000;52.056;8.510;2022-07-03T03:33:38;9.23;;;3.20;;
26277;SDS011;14000;52.056;8.510;2022-07-03T03:36:07;10.40;;;3.50;;
26277;SDS011;14000;52.056;8.510;2022-07-03T03:38:34;8.73;;;3.50;;
26277;SDS011;14000;52.056;8.510;2022-07-03T03:41:00;10.10;;;3.97;;
26277;SDS011;14000;52.056;8.510;2022-07-03T03:43:27;10.17;;;3.53;;
26277;SDS011;14000;52.056;8.510;2022-07-03T03:45:53;11.40;;;3.70;;
26277;SDS011;14000;52.056;8.510;2022-07-03T03:48:19;10.20;;;3.10;;
26277;SDS011;14000;52.056;8.510;2022-07-03T03:50:45;9.40;;;3.40;;
26277;SDS011;14000;52.056;8.510;2022-07-03T03:53:11;10.97;;;3.30;;
26277;SDS011;14000;52.056;8.510;2022-07-03T03:55:37;8.77;;;3.27;;
26277;SDS011;14000;52.056;8.510;2022-07-03T03:58:16;9.67;;;3.47;;
26277;SDS011;14000;52.056;8.510;2022-07-03T04:00:42;8.87;;;3.50;;
26277;SDS011;14000;52.056;8.510;2022-07-03T04:03:07;9.00;;;3.30;;
26277;SDS011;14000;52.056;8.510;2022-07-03T04:05:33;10.57;;;3.13;;
26277;SDS011;14000;52.056;8.510;2022-07-03T04:07:59;8.37;;;2.87;;
26277;SDS011;14000;52.056;8.510;2022-07-03T04:10:24;7.27;;;2.97;;
26277;SDS011;14000;52.056;8.510;2022-07-03T04:12:50;9.30;;;3.30;;
26277;SDS011;14000;52.056;8.510;2022-07-03T04:15:15;12.07;;;3.80;;
26277;SDS011;14000;52.056;8.510;2022-07-03T04:17:41;10.07;;;3.60;;
26277;SDS011;14000;52.056;8.510;2022-07-03T04:20:07;7.87;;;3.47;;
26277;SDS011;14000;52.056;8.510;2022-07-03T04:22:33;7.37;;;2.70;;
26277;SDS011;14000;52.056;8.510;2022-07-03T04:24:58;10.63;;;3.50;;
26277;SDS011;14000;52.056;8.510;2022-07-03T04:27:24;11.90;;;3.30;;
26277;SDS011;14000;52.056;8.510;2022-07-03T04:29:49;10.93;;;3.37;;
26277;SDS011;14000;52.056;8.510;2022-07-03T04:32:15;8.43;;;3.20;;
26277;SDS011;14000;52.056;8.510;2022-07-03T04:34:41;8.57;;;3.00;;
26277;SDS011;14000;52.056;8.510;2022-07-03T04:37:06;10.87;;;3.20;;
26277;SDS011;14000;52.056;8.510;2022-07-03T04:39:32;12.40;;;3.17;;
26277;SDS011;14000;52.056;8.510;2022-07-03T04:41:57;8.07;;;3.30;;
26277;SDS011;14000;52.056;8.510;2022-07-03T04:44:23;7.43;;;2.80;;
26277;SDS011;14000;52.056;8.510;2022-07-03T04:46:49;9.40;;;3.10;;
26277;SDS011;14000;52.056;8.510;2022-07-03T04:49:14;9.37;;;2.83;;
26277;SDS011;14000;52.056;8.510;2022-07-03T04:51:41;8.10;;;2.80;;
26277;SDS011;14000;52.056;8.510;2022-07-03T04:54:06;9.07;;;3.00;;
26277;SDS011;14000;52.056;8.510;2022-07-03T04:56:32;12.43;;;3.67;;
26277;SDS011;14000;52.056;8.510;2022-07-03T04:58:58;8.03;;;3.10;;
26277;SDS011;14000;52.056;8.510;2022-07-03T05:01:23;9.00;;;3.40;;
26277;SDS011;14000;52.056;8.510;2022-07-03T05:03:49;9.17;;;3.63;;
26277;SDS011;14000;52.056;8.510;2022-07-03T05:06:14;8.70;;;3.23;;
26277;SDS011;14000;52.056;8.510;2022-07-03T05:08:40;9.97;;;3.20;;
26277;SDS011;14000;52.056;8.510;2022-07-03T05:11:06;10.50;;;3.03;;
26277;SDS011;14000;52.056;8.510;2022-07-03T05:13:31;8.50;;;2.87;;
26277;SDS011;14000;52.056;8.510;2022-07-03T05:15:57;9.90;;;2.40;;
26277;SDS011;14000;52.056;8.510;2022-07-03T05:18:22;8.27;;;2.87;;
26277;SDS011;14000;52.056;8.510;2022-07-03T05:20:48;11.97;;;3.17;;
26277;SDS011;14000;52.056;8.510;2022-07-03T05:23:14;11.17;;;2.70;;
26277;SDS011;14000;52.056;8.510;2022-07-03T05:25:39;8.33;;;2.63;;
26277;SDS011;14000;52.056;8.510;2022-07-03T05:28:05;9.40;;;3.00;;
26277;SDS011;14000;52.056;8.510;2022-07-03T05:30:31;8.13;;;2.80;;
26277;SDS011;14000;52.056;8.510;2022-07-03T05:32:56;9.10;;;2.87;;
26277;SDS011;14000;52.056;8.510;2022-07-03T05:35:22;9.20;;;2.73;;
26277;SDS011;14000;52.056;8.510;2022-07-03T05:37:48;9.03;;;2.90;;
26277;SDS011;14000;52.056;8.510;2022-07-03T05:40:14;8.60;;;2.87;;
26277;SDS011;14000;52.056;8.510;2022-07-03T05:42:40;8.00;;;2.73;;
26277;SDS011;14000;52.056;8.510;2022-07-03T05:45:06;7.63;;;2.63;;
26277;SDS011;14000;52.056;8.510;2022-07-03T05:47:32;9.67;;;2.90;;
26277;SDS011;14000;52.056;8.510;2022-07-03T05:49:58;8.93;;;2.77;;
26277;SDS011;14000;52.056;8.510;2022-07-03T05:52:23;9.63;;;3.03;;
26277;SDS011;14000;52.056;8.510;2022-07-03T05:54:49;7.40;;;2.43;;
26277;SDS011;14000;52.056;8.510;2022-07-03T05:57:15;7.03;;;2.50;;
26277;SDS011;14000;52.056;8.510;2022-07-03T05:59:40;7.63;;;2.60;;
26277;SDS011;14000;52.056;8.510;2022-07-03T06:02:06;7.93;;;2.30;;
26277;SDS011;14000;52.056;8.510;2022-07-03T06:04:32;7.93;;;2.40;;
26277;SDS011;14000;52.056;8.510;2022-07-03T06:06:57;8.20;;;2.30;;
26277;SDS011;14000;52.056;8.510;2022-07-03T06:09:23;8.10;;;2.43;;
26277;SDS011;14000;52.056;8.510;2022-07-03T06:11:49;7.10;;;2.33;;
26277;SDS011;14000;52.056;8.510;2022-07-03T06:14:14;6.97;;;2.30;;
26277;SDS011;14000;52.056;8.510;2022-07-03T06:16:40;7.40;;;2.40;;
26277;SDS011;14000;52.056;8.510;2022-07-03T06:19:06;7.70;;;2.40;;
26277;SDS011;14000;52.056;8.510;2022-07-03T06:21:32;8.40;;;2.90;;
26277;SDS011;14000;52.056;8.510;2022-07-03T06:23:58;10.73;;;3.50;;
26277;SDS011;14000;52.056;8.510;2022-07-03T06:26:24;10.43;;;3.80;;
26277;SDS011;14000;52.056;8.510;2022-07-03T06:28:51;10.20;;;3.57;;
26277;SDS011;14000;52.056;8.510;2022-07-03T06:31:16;9.27;;;3.37;;
26277;SDS011;14000;52.056;8.510;2022-07-03T06:33:42;10.33;;;2.70;;
26277;SDS011;14000;52.056;8.510;2022-07-03T06:36:08;9.73;;;2.23;;
26277;SDS011;14000;52.056;8.510;2022-07-03T06:38:34;8.53;;;2.60;;
26277;SDS011;14000;52.056;8.510;2022-07-03T06:40:59;7.43;;;2.30;;
26277;SDS011;14000;52.056;8.510;2022-07-03T06:43:25;7.60;;;2.40;;
26277;SDS011;14000;52.056;8.510;2022-07-03T06:45:50;8.33;;;2.30;;
26277;SDS011;14000;52.056;8.510;2022-07-03T06:48:16;8.03;;;2.13;;
26277;SDS011;14000;52.056;8.510;2022-07-03T06:50:42;7.47;;;1.90;;
26277;SDS011;14000;52.056;8.510;2022-07-03T06:53:07;8.97;;;2.53;;
26277;SDS011;14000;52.056;8.510;2022-07-03T06:55:33;7.73;;;1.87;;
26277;SDS011;14000;52.056;8.510;2022-07-03T06:57:59;5.70;;;1.73;;
26277;SDS011;14000;52.056;8.510;2022-07-03T07:00:24;6.80;;;1.93;;
26277;SDS011;14000;52.056;8.510;2022-07-03T07:02:50;8.77;;;2.13;;
26277;SDS011;14000;52.056;8.510;2022-07-03T07:05:16;5.90;;;1.77;;
26277;SDS011;14000;52.056;8.510;2022-07-03T07:07:41;5.87;;;1.90;;
26277;SDS011;14000;52.056;8.510;2022-07-03T07:10:07;5.60;;;1.70;;
26277;SDS011;14000;52.056;8.510;2022-07-03T07:12:33;6.17;;;1.77;;
26277;SDS011;14000;52.056;8.510;2022-07-03T07:14:58;10.30;;;1.90;;
26277;SDS011;14000;52.056;8.510;2022-07-03T07:17:24;8.43;;;1.70;;
26277;SDS011;14000;52.056;8.510;2022-07-03T07:19:50;6.20;;;1.70;;
26277;SDS011;14000;52.056;8.510;2022-07-03T07:22:15;6.10;;;1.60;;
26277;SDS011;14000;52.056;8.510;2022-07-03T07:24:42;9.30;;;1.70;;
26277;SDS011;14000;52.056;8.510;2022-07-03T07:27:08;6.50;;;1.67;;
26277;SDS011;14000;52.056;8.510;2022-07-03T07:29:34;5.77;;;1.67;;
26277;SDS011;14000;52.056;8.510;2022-07-03T07:31:59;9.43;;;1.70;;
26277;SDS011;14000;52.056;8.510;2022-07-03T07:34:25;7.77;;;1.70;;
26277;SDS011;14000;52.056;8.510;2022-07-03T07:36:50;7.60;;;1.60;;
26277;SDS011;14000;52.056;8.510;2022-07-03T07:39:16;10.07;;;2.23;;
26277;SDS011;14000;52.056;8.510;2022-07-03T07:41:42;6.43;;;1.70;;
26277;SDS011;14000;52.056;8.510;2022-07-03T07:44:07;6.27;;;1.47;;
26277;SDS011;14000;52.056;8.510;2022-07-03T07:46:33;5.73;;;1.43;;
26277;SDS011;14000;52.056;8.510;2022-07-03T07:48:58;6.33;;;1.63;;
26277;SDS011;14000;52.056;8.510;2022-07-03T07:51:24;7.30;;;1.60;;
26277;SDS011;14000;52.056;8.510;2022-07-03T07:53:50;7.77;;;1.60;;
26277;SDS011;14000;52.056;8.510;2022-07-03T07:56:17;6.13;;;1.50;;
26277;SDS011;14000;52.056;8.510;2022-07-03T07:58:43;6.20;;;1.67;;
26277;SDS011;14000;52.056;8.510;2022-07-03T08:01:08;6.70;;;1.70;;
26277;SDS011;14000;52.056;8.510;2022-07-03T08:03:52;5.77;;;1.23;;
26277;SDS011;14000;52.056;8.510;2022-07-03T08:06:36;7.83;;;1.63;;
26277;SDS011;14000;52.056;8.510;2022-07-03T08:09:02;7.03;;;1.30;;
26277;SDS011;14000;52.056;8.510;2022-07-03T08:11:28;5.10;;;1.30;;
26277;SDS011;14000;52.056;8.510;2022-07-03T08:13:53;5.70;;;1.30;;
26277;SDS011;14000;52.056;8.510;2022-07-03T08:16:19;5.03;;;0.97;;
26277;SDS011;14000;52.056;8.510;2022-07-03T08:18:45;8.07;;;1.20;;
26277;SDS011;14000;52.056;8.510;2022-07-03T08:21:10;5.83;;;1.20;;
26277;SDS011;14000;52.056;8.510;2022-07-03T08:23:36;3.60;;;1.13;;
26277;SDS011;14000;52.056;8.510;2022-07-03T08:26:02;7.40;;;1.17;;
26277;SDS011;14000;52.056;8.510;2022-07-03T08:28:27;6.43;;;1.20;;
26277;SDS011;14000;52.056;8.510;2022-07-03T08:30:53;4.90;;;1.10;;
26277;SDS011;14000;52.056;8.510;2022-07-03T08:33:19;9.90;;;2.00;;
26277;SDS011;14000;52.056;8.510;2022-07-03T08:35:44;6.60;;;1.80;;
26277;SDS011;14000;52.056;8.510;2022-07-03T08:38:10;4.50;;;1.20;;
26277;SDS011;14000;52.056;8.510;2022-07-03T08:40:36;3.83;;;1.23;;
26277;SDS011;14000;52.056;8.510;2022-07-03T08:43:02;8.03;;;1.57;;
26277;SDS011;14000;52.056;8.510;2022-07-03T08:45:28;6.57;;;1.30;;
26277;SDS011;14000;52.056;8.510;2022-07-03T08:47:55;4.40;;;1.20;;
26277;SDS011;14000;52.056;8.510;2022-07-03T08:50:24;6.10;;;1.47;;
26277;SDS011;14000;52.056;8.510;2022-07-03T08:52:50;5.43;;;1.30;;
26277;SDS011;14000;52.056;8.510;2022-07-03T08:55:17;5.30;;;1.20;;
26277;SDS011;14000;52.056;8.510;2022-07-03T08:57:44;5.73;;;1.30;;
26277;SDS011;14000;52.056;8.510;2022-07-03T09:00:16;5.93;;;1.33;;
26277;SDS011;14000;52.056;8.510;2022-07-03T09:02:43;5.80;;;1.40;;
26277;SDS011;14000;52.056;8.510;2022-07-03T09:05:13;4.40;;;1.10;;
26277;SDS011;14000;52.056;8.510;2022-07-03T09:07:41;6.57;;;1.50;;
26277;SDS011;14000;52.056;8.510;2022-07-03T09:10:08;4.80;;;1.20;;
26277;SDS011;14000;52.056;8.510;2022-07-03T09:12:35;6.40;;;1.40;;
26277;SDS011;14000;52.056;8.510;2022-07-03T09:15:03;5.63;;;1.40;;
26277;SDS011;14000;52.056;8.510;2022-07-03T09:17:30;6.23;;;1.33;;
26277;SDS011;14000;52.056;8.510;2022-07-03T09:20:00;4.27;;;1.10;;
26277;SDS011;14000;52.056;8.510;2022-07-03T09:22:32;5.13;;;1.00;;
26277;SDS011;14000;52.056;8.510;2022-07-03T09:25:03;5.77;;;1.40;;
26277;SDS011;14000;52.056;8.510;2022-07-03T09:27:33;8.43;;;1.23;;
26277;SDS011;14000;52.056;8.510;2022-07-03T09:30:03;6.33;;;1.27;;
26277;SDS011;14000;52.056;8.510;2022-07-03T09:35:22;5.13;;;1.10;;
26277;SDS011;14000;52.056;8.510;2022-07-03T09:40:21;7.83;;;1.10;;
26277;SDS011;14000;52.056;8.510;2022-07-03T09:45:23;5.53;;;1.10;;
26277;SDS011;14000;52.056;8.510;2022-07-03T09:47:49;7.20;;;1.23;;
26277;SDS011;14000;52.056;8.510;2022-07-03T09:50:15;5.57;;;1.10;;
26277;SDS011;14000;52.056;8.510;2022-07-03T09:52:41;4.20;;;1.00;;
26277;SDS011;14000;52.056;8.510;2022-07-03T09:57:34;8.73;;;1.30;;
26277;SDS011;14000;52.056;8.510;2022-07-03T10:00:20;5.53;;;1.17;;
26277;SDS011;14000;52.056;8.510;2022-07-03T10:03:08;4.47;;;1.20;;
26277;SDS011;14000;52.056;8.510;2022-07-03T10:05:38;6.13;;;1.07;;
26277;SDS011;14000;52.056;8.510;2022-07-03T10:10:33;4.57;;;1.10;;
26277;SDS011;14000;52.056;8.510;2022-07-03T10:13:00;8.20;;;1.90;;
26277;SDS011;14000;52.056;8.510;2022-07-03T10:15:27;6.23;;;1.10;;
26277;SDS011;14000;52.056;8.510;2022-07-03T10:17:55;4.87;;;1.20;;
26277;SDS011;14000;52.056;8.510;2022-07-03T10:20:33;4.27;;;1.10;;
26277;SDS011;14000;52.056;8.510;2022-07-03T10:23:10;5.17;;;1.10;;
26277;SDS011;14000;52.056;8.510;2022-07-03T10:25:36;5.83;;;1.20;;
26277;SDS011;14000;52.056;8.510;2022-07-03T10:28:05;5.97;;;1.20;;
26277;SDS011;14000;52.056;8.510;2022-07-03T10:30:31;7.33;;;1.27;;
26277;SDS011;14000;52.056;8.510;2022-07-03T10:32:59;6.10;;;1.00;;
26277;SDS011;14000;52.056;8.510;2022-07-03T10:35:29;4.83;;;1.10;;
26277;SDS011;14000;52.056;8.510;2022-07-03T10:40:31;7.73;;;1.10;;
26277;SDS011;14000;52.056;8.510;2022-07-03T10:43:25;3.23;;;0.93;;
26277;SDS011;14000;52.056;8.510;2022-07-03T10:46:15;5.03;;;1.03;;
26277;SDS011;14000;52.056;8.510;2022-07-03T10:51:27;6.47;;;1.10;;
26277;SDS011;14000;52.056;8.510;2022-07-03T11:07:29;5.77;;;1.00;;
26277;SDS011;14000;52.056;8.510;2022-07-03T11:15:39;8.02;;;1.23;;
26277;SDS011;14000;52.056;8.510;2022-07-03T11:18:12;3.85;;;0.90;;
26277;SDS011;14000;52.056;8.510;2022-07-03T11:23:28;6.18;;;1.40;;
26277;SDS011;14000;52.056;8.510;2022-07-03T11:25:59;5.10;;;1.08;;
26277;SDS011;14000;52.056;8.510;2022-07-03T11:43:55;4.57;;;0.85;;
26277;SDS011;14000;52.056;8.510;2022-07-03T11:46:27;5.10;;;1.08;;
26277;SDS011;14000;52.056;8.510;2022-07-03T11:49:10;4.38;;;0.98;;
26277;SDS011;14000;52.056;8.510;2022-07-03T11:51:39;4.57;;;1.00;;
26277;SDS011;14000;52.056;8.510;2022-07-03T11:54:06;4.65;;;0.90;;
26277;SDS011;14000;52.056;8.510;2022-07-03T11:56:32;3.38;;;0.80;;
26277;SDS011;14000;52.056;8.510;2022-07-03T11:59:00;3.78;;;0.90;;
26277;SDS011;14000;52.056;8.510;2022-07-03T12:01:31;4.05;;;0.82;;
26277;SDS011;14000;52.056;8.510;2022-07-03T12:04:11;5.45;;;0.95;;
26277;SDS011;14000;52.056;8.510;2022-07-03T12:09:21;9.15;;;2.28;;
26277;SDS011;14000;52.056;8.510;2022-07-03T12:12:24;5.90;;;1.40;;
26277;SDS011;14000;52.056;8.510;2022-07-03T12:14:48;5.00;;;1.10;;
26277;SDS011;14000;52.056;8.510;2022-07-03T12:17:21;4.95;;;1.02;;
26277;SDS011;14000;52.056;8.510;2022-07-03T12:22:29;5.53;;;1.10;;
26277;SDS011;14000;52.056;8.510;2022-07-03T12:27:31;4.67;;;0.90;;
26277;SDS011;14000;52.056;8.510;2022-07-03T12:29:58;3.87;;;1.00;;
26277;SDS011;14000;52.056;8.510;2022-07-03T12:32:25;4.10;;;0.87;;
26277;SDS011;14000;52.056;8.510;2022-07-03T12:34:51;3.30;;;0.90;;
26277;SDS011;14000;52.056;8.510;2022-07-03T12:37:16;6.80;;;1.17;;
26277;SDS011;14000;52.056;8.510;2022-07-03T12:39:55;4.53;;;1.20;;
26277;SDS011;14000;52.056;8.510;2022-07-03T12:42:21;5.47;;;1.30;;
26277;SDS011;14000;52.056;8.510;2022-07-03T12:44:54;6.63;;;1.20;;
26277;SDS011;14000;52.056;8.510;2022-07-03T12:47:24;6.33;;;1.20;;
26277;SDS011;14000;52.056;8.510;2022-07-03T12:49:55;9.10;;;3.37;;
26277;SDS011;14000;52.056;8.510;2022-07-03T12:52:26;9.10;;;2.93;;
26277;SDS011;14000;52.056;8.510;2022-07-03T12:54:53;6.87;;;1.43;;
26277;SDS011;14000;52.056;8.510;2022-07-03T12:57:19;5.83;;;1.20;;
26277;SDS011;14000;52.056;8.510;2022-07-03T13:02:34;5.50;;;1.20;;
26277;SDS011;14000;52.056;8.510;2022-07-03T13:05:01;5.30;;;1.40;;
26277;SDS011;14000;52.056;8.510;2022-07-03T13:07:39;6.10;;;1.20;;
26277;SDS011;14000;52.056;8.510;2022-07-03T13:10:05;5.80;;;1.17;;
26277;SDS011;14000;52.056;8.510;2022-07-03T13:12:31;10.17;;;1.77;;
26277;SDS011;14000;52.056;8.510;2022-07-03T13:14:58;5.47;;;1.20;;
26277;SDS011;14000;52.056;8.510;2022-07-03T13:17:49;6.27;;;1.20;;
26277;SDS011;14000;52.056;8.510;2022-07-03T13:20:31;4.70;;;1.10;;
26277;SDS011;14000;52.056;8.510;2022-07-03T13:23:05;4.60;;;1.10;;
26277;SDS011;14000;52.056;8.510;2022-07-03T13:25:32;7.10;;;1.27;;
26277;SDS011;14000;52.056;8.510;2022-07-03T13:28:06;5.30;;;1.20;;
26277;SDS011;14000;52.056;8.510;2022-07-03T13:30:34;7.33;;;1.30;;
26277;SDS011;14000;52.056;8.510;2022-07-03T13:33:01;4.53;;;1.23;;
26277;SDS011;14000;52.056;8.510;2022-07-03T13:35:27;5.47;;;1.27;;
26277;SDS011;14000;52.056;8.510;2022-07-03T13:37:54;5.30;;;1.27;;
26277;SDS011;14000;52.056;8.510;2022-07-03T13:40:19;5.17;;;1.40;;
26277;SDS011;14000;52.056;8.510;2022-07-03T13:42:45;5.60;;;1.43;;
26277;SDS011;14000;52.056;8.510;2022-07-03T13:45:11;5.93;;;1.53;;
26277;SDS011;14000;52.056;8.510;2022-07-03T13:47:36;7.47;;;1.60;;
26277;SDS011;14000;52.056;8.510;2022-07-03T13:50:02;6.07;;;1.47;;
26277;SDS011;14000;52.056;8.510;2022-07-03T13:52:29;6.27;;;1.50;;
26277;SDS011;14000;52.056;8.510;2022-07-03T13:54:55;6.30;;;1.60;;
26277;SDS011;14000;52.056;8.510;2022-07-03T13:57:21;7.87;;;1.67;;
26277;SDS011;14000;52.056;8.510;2022-07-03T13:59:47;7.23;;;1.60;;
26277;SDS011;14000;52.056;8.510;2022-07-03T14:02:13;6.90;;;1.50;;
26277;SDS011;14000;52.056;8.510;2022-07-03T14:04:39;6.97;;;1.57;;
26277;SDS011;14000;52.056;8.510;2022-07-03T14:07:04;7.13;;;1.70;;
26277;SDS011;14000;52.056;8.510;2022-07-03T14:09:30;9.63;;;1.83;;
26277;SDS011;14000;52.056;8.510;2022-07-03T14:11:56;8.80;;;1.80;;
26277;SDS011;14000;52.056;8.510;2022-07-03T14:14:22;7.90;;;1.80;;
26277;SDS011;14000;52.056;8.510;2022-07-03T14:16:47;8.20;;;1.70;;
26277;SDS011;14000;52.056;8.510;2022-07-03T14:19:13;10.13;;;2.20;;
26277;SDS011;14000;52.056;8.510;2022-07-03T14:21:39;8.93;;;1.90;;
26277;SDS011;14000;52.056;8.510;2022-07-03T14:24:04;7.87;;;1.67;;
26277;SDS011;14000;52.056;8.510;2022-07-03T14:26:30;12.40;;;1.87;;
26277;SDS011;14000;52.056;8.510;2022-07-03T14:29:14;7.20;;;1.70;;
26277;SDS011;14000;52.056;8.510;2022-07-03T14:31:58;8.77;;;1.73;;
26277;SDS011;14000;52.056;8.510;2022-07-03T14:34:42;9.77;;;1.67;;
26277;SDS011;14000;52.056;8.510;2022-07-03T14:37:08;6.87;;;1.70;;
26277;SDS011;14000;52.056;8.510;2022-07-03T14:39:34;7.73;;;1.53;;
26277;SDS011;14000;52.056;8.510;2022-07-03T14:42:00;7.63;;;1.63;;
26277;SDS011;14000;52.056;8.510;2022-07-03T14:44:27;7.30;;;1.83;;
26277;SDS011;14000;52.056;8.510;2022-07-03T14:46:54;6.87;;;1.30;;
26277;SDS011;14000;52.056;8.510;2022-07-03T14:49:20;5.97;;;1.37;;
26277;SDS011;14000;52.056;8.510;2022-07-03T14:51:46;5.70;;;1.33;;
26277;SDS011;14000;52.056;8.510;2022-07-03T14:54:16;6.60;;;1.30;;
26277;SDS011;14000;52.056;8.510;2022-07-03T14:56:45;6.77;;;1.40;;
26277;SDS011;14000;52.056;8.510;2022-07-03T14:59:16;12.10;;;3.10;;
26277;SDS011;14000;52.056;8.510;2022-07-03T15:01:50;8.53;;;1.60;;
26277;SDS011;14000;52.056;8.510;2022-07-03T15:04:48;6.90;;;1.77;;
26277;SDS011;14000;52.056;8.510;2022-07-03T15:07:09;5.30;;;1.30;;
26277;SDS011;14000;52.056;8.510;2022-07-03T15:09:38;5.90;;;1.80;;
26277;SDS011;14000;52.056;8.510;2022-07-03T15:12:10;8.23;;;1.77;;
26277;SDS011;14000;52.056;8.510;2022-07-03T15:14:54;7.03;;;1.60;;
26277;SDS011;14000;52.056;8.510;2022-07-03T15:17:23;7.93;;;1.60;;
26277;SDS011;14000;52.056;8.510;2022-07-03T15:19:49;8.60;;;1.60;;
26277;SDS011;14000;52.056;8.510;2022-07-03T15:22:21;8.43;;;2.33;;
26277;SDS011;14000;52.056;8.510;2022-07-03T15:24:51;8.67;;;1.53;;
26277;SDS011;14000;52.056;8.510;2022-07-03T15:27:22;7.17;;;1.60;;
26277;SDS011;14000;52.056;8.510;2022-07-03T15:29:49;9.53;;;2.90;;
26277;SDS011;14000;52.056;8.510;2022-07-03T15:32:16;11.70;;;2.10;;
26277;SDS011;14000;52.056;8.510;2022-07-03T15:34:43;7.40;;;1.83;;
26277;SDS011;14000;52.056;8.510;2022-07-03T15:37:23;4.73;;;1.30;;
26277;SDS011;14000;52.056;8.510;2022-07-03T15:40:04;5.57;;;1.40;;
26277;SDS011;14000;52.056;8.510;2022-07-03T15:42:47;5.50;;;1.27;;
26277;SDS011;14000;52.056;8.510;2022-07-03T15:53:31;7.80;;;1.50;;
26277;SDS011;14000;52.056;8.510;2022-07-03T15:56:03;6.03;;;1.30;;
26277;SDS011;14000;52.056;8.510;2022-07-03T15:58:30;7.13;;;1.33;;
26277;SDS011;14000;52.056;8.510;2022-07-03T16:00:58;7.37;;;1.43;;
26277;SDS011;14000;52.056;8.510;2022-07-03T16:03:51;6.67;;;1.30;;
26277;SDS011;14000;52.056;8.510;2022-07-03T16:06:32;3.80;;;1.17;;
26277;SDS011;14000;52.056;8.510;2022-07-03T16:08:58;7.10;;;1.20;;
26277;SDS011;14000;52.056;8.510;2022-07-03T16:11:25;4.57;;;1.10;;
26277;SDS011;14000;52.056;8.510;2022-07-03T16:13:50;7.63;;;1.37;;
26277;SDS011;14000;52.056;8.510;2022-07-03T16:16:20;7.40;;;1.30;;
26277;SDS011;14000;52.056;8.510;2022-07-03T16:18:49;7.13;;;1.30;;
26277;SDS011;14000;52.056;8.510;2022-07-03T16:21:15;5.97;;;1.37;;
26277;SDS011;14000;52.056;8.510;2022-07-03T16:23:44;7.27;;;1.40;;
26277;SDS011;14000;52.056;8.510;2022-07-03T16:26:12;6.77;;;1.40;;
26277;SDS011;14000;52.056;8.510;2022-07-03T16:28:40;7.70;;;1.30;;
26277;SDS011;14000;52.056;8.510;2022-07-03T16:31:06;6.50;;;1.40;;
26277;SDS011;14000;52.056;8.510;2022-07-03T16:33:35;6.13;;;1.40;;
26277;SDS011;14000;52.056;8.510;2022-07-03T16:36:18;5.37;;;1.20;;
26277;SDS011;14000;52.056;8.510;2022-07-03T16:38:57;6.43;;;1.30;;
26277;SDS011;14000;52.056;8.510;2022-07-03T16:41:29;8.23;;;2.07;;
26277;SDS011;14000;52.056;8.510;2022-07-03T16:43:57;5.23;;;1.40;;
26277;SDS011;14000;52.056;8.510;2022-07-03T16:46:25;7.70;;;1.30;;
26277;SDS011;14000;52.056;8.510;2022-07-03T16:48:52;5.80;;;1.50;;